sensor_id;sensor_type;location;lat;lon;timestamp;P1;durP1;ratioP1;P2;durP2;ratioP2
4122;SDS011;2075;51.062;6.920;2022-12-11T00:01:20;63.13;;;21.40;;
4122;SDS011;2075;51.062;6.920;2022-12-11T00:04:07;67.07;;;20.70;;
4122;SDS011;2075;51.062;6.920;2022-12-11T00:06:53;65.87;;;21.87;;
4122;SDS011;2075;51.062;6.920;2022-12-11T00:09:38;66.53;;;21.50;;
4122;SDS011;2075;51.062;6.920;2022-12-11T00:12:23;60.90;;;20.90;;
4122;SDS011;2075;51.062;6.920;2022-12-11T00:15:09;65.53;;;21.37;;
4122;SDS011;2075;51.062;6.920;2022-12-11T00:17:55;63.60;;;20.10;;
4122;SDS011;2075;51.062;6.920;2022-12-11T00:20:42;59.60;;;20.87;;
4122;SDS011;2075;51.062;6.920;2022-12-11T00:23:28;63.00;;;20.73;;
4122;SDS011;2075;51.062;6.920;2022-12-11T00:26:14;64.20;;;20.93;;
4122;SDS011;2075;51.062;6.920;2022-12-11T00:28:59;58.50;;;20.70;;
4122;SDS011;2075;51.062;6.920;2022-12-11T00:31:45;60.60;;;20.47;;
4122;SDS011;2075;51.062;6.920;2022-12-11T00:34:30;66.13;;;20.43;;
4122;SDS011;2075;51.062;6.920;2022-12-11T00:37:17;59.73;;;20.10;;
4122;SDS011;2075;51.062;6.920;2022-12-11T00:40:02;55.57;;;21.23;;
4122;SDS011;2075;51.062;6.920;2022-12-11T00:42:48;67.77;;;20.83;;
4122;SDS011;2075;51.062;6.920;2022-12-11T00:45:34;59.77;;;21.33;;
4122;SDS011;2075;51.062;6.920;2022-12-11T00:48:20;71.53;;;22.70;;
4122;SDS011;2075;51.062;6.920;2022-12-11T00:51:05;65.23;;;23.27;;
4122;SDS011;2075;51.062;6.920;2022-12-11T00:53:52;58.53;;;20.33;;
4122;SDS011;2075;51.062;6.920;2022-12-11T00:56:38;69.77;;;21.27;;
4122;SDS011;2075;51.062;6.920;2022-12-11T00:59:23;64.47;;;21.33;;
4122;SDS011;2075;51.062;6.920;2022-12-11T01:02:09;60.63;;;21.20;;
4122;SDS011;2075;51.062;6.920;2022-12-11T01:04:54;68.20;;;22.40;;
4122;SDS011;2075;51.062;6.920;2022-12-11T01:07:40;69.27;;;20.77;;
4122;SDS011;2075;51.062;6.920;2022-12-11T01:10:29;60.10;;;21.60;;
4122;SDS011;2075;51.062;6.920;2022-12-11T01:13:15;66.40;;;23.27;;
4122;SDS011;2075;51.062;6.920;2022-12-11T01:16:04;65.40;;;21.80;;
4122;SDS011;2075;51.062;6.920;2022-12-11T01:18:51;66.27;;;21.70;;
4122;SDS011;2075;51.062;6.920;2022-12-11T01:21:39;68.03;;;20.30;;
4122;SDS011;2075;51.062;6.920;2022-12-11T01:24:24;62.93;;;20.77;;
4122;SDS011;2075;51.062;6.920;2022-12-11T01:27:11;61.50;;;21.27;;
4122;SDS011;2075;51.062;6.920;2022-12-11T01:29:56;60.00;;;20.43;;
4122;SDS011;2075;51.062;6.920;2022-12-11T01:32:42;65.00;;;19.60;;
4122;SDS011;2075;51.062;6.920;2022-12-11T01:35:27;63.87;;;20.80;;
4122;SDS011;2075;51.062;6.920;2022-12-11T01:38:13;54.80;;;20.40;;
4122;SDS011;2075;51.062;6.920;2022-12-11T01:40:58;68.13;;;21.70;;
4122;SDS011;2075;51.062;6.920;2022-12-11T01:43:58;85.00;;;22.00;;
4122;SDS011;2075;51.062;6.920;2022-12-11T01:46:45;68.47;;;19.63;;
4122;SDS011;2075;51.062;6.920;2022-12-11T01:49:30;70.67;;;21.60;;
4122;SDS011;2075;51.062;6.920;2022-12-11T01:52:18;67.73;;;21.70;;
4122;SDS011;2075;51.062;6.920;2022-12-11T01:55:06;65.30;;;21.23;;
4122;SDS011;2075;51.062;6.920;2022-12-11T01:57:52;73.00;;;23.47;;
4122;SDS011;2075;51.062;6.920;2022-12-11T02:00:39;58.97;;;20.10;;
4122;SDS011;2075;51.062;6.920;2022-12-11T02:03:27;73.53;;;21.97;;
4122;SDS011;2075;51.062;6.920;2022-12-11T02:06:28;60.87;;;21.23;;
4122;SDS011;2075;51.062;6.920;2022-12-11T02:09:15;62.87;;;21.27;;
4122;SDS011;2075;51.062;6.920;2022-12-11T02:12:05;56.10;;;20.90;;
4122;SDS011;2075;51.062;6.920;2022-12-11T02:14:58;65.03;;;20.93;;
4122;SDS011;2075;51.062;6.920;2022-12-11T02:17:59;64.97;;;21.07;;
4122;SDS011;2075;51.062;6.920;2022-12-11T02:20:53;58.07;;;22.07;;
4122;SDS011;2075;51.062;6.920;2022-12-11T02:23:50;71.97;;;22.87;;
4122;SDS011;2075;51.062;6.920;2022-12-11T02:26:50;67.37;;;22.57;;
4122;SDS011;2075;51.062;6.920;2022-12-11T02:29:49;75.87;;;23.60;;
4122;SDS011;2075;51.062;6.920;2022-12-11T02:32:39;66.00;;;21.37;;
4122;SDS011;2075;51.062;6.920;2022-12-11T02:35:31;64.60;;;22.03;;
4122;SDS011;2075;51.062;6.920;2022-12-11T02:38:21;62.33;;;21.53;;
4122;SDS011;2075;51.062;6.920;2022-12-11T02:41:13;66.43;;;21.80;;
4122;SDS011;2075;51.062;6.920;2022-12-11T02:43:59;66.73;;;22.80;;
4122;SDS011;2075;51.062;6.920;2022-12-11T02:46:49;70.70;;;23.40;;
4122;SDS011;2075;51.062;6.920;2022-12-11T02:49:36;75.50;;;22.27;;
4122;SDS011;2075;51.062;6.920;2022-12-11T02:52:22;59.47;;;21.97;;
4122;SDS011;2075;51.062;6.920;2022-12-11T02:55:09;63.37;;;21.57;;
4122;SDS011;2075;51.062;6.920;2022-12-11T02:57:59;56.63;;;18.80;;
4122;SDS011;2075;51.062;6.920;2022-12-11T03:00:48;66.80;;;21.37;;
4122;SDS011;2075;51.062;6.920;2022-12-11T03:03:35;66.00;;;21.40;;
4122;SDS011;2075;51.062;6.920;2022-12-11T03:06:21;74.87;;;21.17;;
4122;SDS011;2075;51.062;6.920;2022-12-11T03:09:11;59.77;;;19.17;;
4122;SDS011;2075;51.062;6.920;2022-12-11T03:11:58;61.63;;;20.17;;
4122;SDS011;2075;51.062;6.920;2022-12-11T03:14:43;63.13;;;20.23;;
4122;SDS011;2075;51.062;6.920;2022-12-11T03:17:32;55.47;;;19.50;;
4122;SDS011;2075;51.062;6.920;2022-12-11T03:20:28;51.90;;;17.67;;
4122;SDS011;2075;51.062;6.920;2022-12-11T03:23:21;51.23;;;18.00;;
4122;SDS011;2075;51.062;6.920;2022-12-11T03:26:15;60.63;;;18.67;;
4122;SDS011;2075;51.062;6.920;2022-12-11T03:29:03;46.60;;;18.17;;
4122;SDS011;2075;51.062;6.920;2022-12-11T03:31:55;49.30;;;17.40;;
4122;SDS011;2075;51.062;6.920;2022-12-11T03:34:44;52.73;;;19.60;;
4122;SDS011;2075;51.062;6.920;2022-12-11T03:37:36;57.20;;;18.20;;
4122;SDS011;2075;51.062;6.920;2022-12-11T03:40:24;51.00;;;17.53;;
4122;SDS011;2075;51.062;6.920;2022-12-11T03:43:12;44.53;;;18.10;;
4122;SDS011;2075;51.062;6.920;2022-12-11T03:45:58;43.50;;;16.00;;
4122;SDS011;2075;51.062;6.920;2022-12-11T03:48:46;47.20;;;18.20;;
4122;SDS011;2075;51.062;6.920;2022-12-11T03:51:33;43.50;;;16.60;;
4122;SDS011;2075;51.062;6.920;2022-12-11T03:54:22;51.33;;;17.70;;
4122;SDS011;2075;51.062;6.920;2022-12-11T03:57:12;50.63;;;17.57;;
4122;SDS011;2075;51.062;6.920;2022-12-11T04:00:00;49.00;;;17.00;;
4122;SDS011;2075;51.062;6.920;2022-12-11T04:02:55;48.83;;;18.20;;
4122;SDS011;2075;51.062;6.920;2022-12-11T04:06:00;48.23;;;16.90;;
4122;SDS011;2075;51.062;6.920;2022-12-11T04:08:47;46.30;;;16.37;;
4122;SDS011;2075;51.062;6.920;2022-12-11T04:11:34;48.60;;;16.27;;
4122;SDS011;2075;51.062;6.920;2022-12-11T04:14:19;39.93;;;16.13;;
4122;SDS011;2075;51.062;6.920;2022-12-11T04:17:22;43.83;;;14.80;;
4122;SDS011;2075;51.062;6.920;2022-12-11T04:20:30;41.47;;;15.30;;
4122;SDS011;2075;51.062;6.920;2022-12-11T04:23:36;43.67;;;16.60;;
4122;SDS011;2075;51.062;6.920;2022-12-11T04:26:40;38.27;;;14.10;;
4122;SDS011;2075;51.062;6.920;2022-12-11T04:29:26;43.87;;;16.73;;
4122;SDS011;2075;51.062;6.920;2022-12-11T04:32:11;47.43;;;17.03;;
4122;SDS011;2075;51.062;6.920;2022-12-11T04:34:56;36.90;;;15.90;;
4122;SDS011;2075;51.062;6.920;2022-12-11T04:37:42;45.20;;;18.40;;
4122;SDS011;2075;51.062;6.920;2022-12-11T04:40:28;42.13;;;17.87;;
4122;SDS011;2075;51.062;6.920;2022-12-11T04:43:14;45.93;;;16.97;;
4122;SDS011;2075;51.062;6.920;2022-12-11T04:46:00;49.33;;;17.33;;
4122;SDS011;2075;51.062;6.920;2022-12-11T04:48:49;47.07;;;15.97;;
4122;SDS011;2075;51.062;6.920;2022-12-11T04:51:35;51.60;;;17.10;;
4122;SDS011;2075;51.062;6.920;2022-12-11T04:54:21;45.03;;;17.07;;
4122;SDS011;2075;51.062;6.920;2022-12-11T04:57:06;46.93;;;18.27;;
4122;SDS011;2075;51.062;6.920;2022-12-11T04:59:53;47.87;;;17.70;;
4122;SDS011;2075;51.062;6.920;2022-12-11T05:02:38;48.93;;;17.97;;
4122;SDS011;2075;51.062;6.920;2022-12-11T05:05:25;49.23;;;17.40;;
4122;SDS011;2075;51.062;6.920;2022-12-11T05:08:10;49.30;;;17.33;;
4122;SDS011;2075;51.062;6.920;2022-12-11T05:10:56;41.47;;;16.07;;
4122;SDS011;2075;51.062;6.920;2022-12-11T05:13:42;42.63;;;16.07;;
4122;SDS011;2075;51.062;6.920;2022-12-11T05:16:30;43.03;;;17.27;;
4122;SDS011;2075;51.062;6.920;2022-12-11T05:19:15;30.57;;;13.90;;
4122;SDS011;2075;51.062;6.920;2022-12-11T05:22:01;35.50;;;14.57;;
4122;SDS011;2075;51.062;6.920;2022-12-11T05:24:46;37.83;;;15.20;;
4122;SDS011;2075;51.062;6.920;2022-12-11T05:27:32;36.77;;;14.13;;
4122;SDS011;2075;51.062;6.920;2022-12-11T05:30:20;29.57;;;12.50;;
4122;SDS011;2075;51.062;6.920;2022-12-11T05:33:07;32.27;;;14.10;;
4122;SDS011;2075;51.062;6.920;2022-12-11T05:35:52;32.60;;;12.67;;
4122;SDS011;2075;51.062;6.920;2022-12-11T05:38:38;43.67;;;15.07;;
4122;SDS011;2075;51.062;6.920;2022-12-11T05:41:24;31.07;;;12.23;;
4122;SDS011;2075;51.062;6.920;2022-12-11T05:44:11;33.90;;;13.73;;
4122;SDS011;2075;51.062;6.920;2022-12-11T05:46:56;33.10;;;13.20;;
4122;SDS011;2075;51.062;6.920;2022-12-11T05:49:43;41.53;;;13.80;;
4122;SDS011;2075;51.062;6.920;2022-12-11T05:52:30;30.57;;;12.70;;
4122;SDS011;2075;51.062;6.920;2022-12-11T05:55:15;35.17;;;13.37;;
4122;SDS011;2075;51.062;6.920;2022-12-11T05:58:01;36.77;;;14.40;;
4122;SDS011;2075;51.062;6.920;2022-12-11T06:00:46;27.07;;;12.33;;
4122;SDS011;2075;51.062;6.920;2022-12-11T06:03:32;32.50;;;14.43;;
4122;SDS011;2075;51.062;6.920;2022-12-11T06:06:19;32.50;;;13.97;;
4122;SDS011;2075;51.062;6.920;2022-12-11T06:09:06;33.20;;;12.93;;
4122;SDS011;2075;51.062;6.920;2022-12-11T06:11:51;30.90;;;13.00;;
4122;SDS011;2075;51.062;6.920;2022-12-11T06:14:36;33.33;;;13.43;;
4122;SDS011;2075;51.062;6.920;2022-12-11T06:17:22;48.03;;;16.30;;
4122;SDS011;2075;51.062;6.920;2022-12-11T06:20:07;41.67;;;14.50;;
4122;SDS011;2075;51.062;6.920;2022-12-11T06:22:57;26.33;;;12.77;;
4122;SDS011;2075;51.062;6.920;2022-12-11T06:25:43;28.73;;;13.20;;
4122;SDS011;2075;51.062;6.920;2022-12-11T06:28:28;29.97;;;12.90;;
4122;SDS011;2075;51.062;6.920;2022-12-11T06:31:14;30.47;;;13.80;;
4122;SDS011;2075;51.062;6.920;2022-12-11T06:33:59;32.90;;;13.60;;
4122;SDS011;2075;51.062;6.920;2022-12-11T06:36:45;34.20;;;13.80;;
4122;SDS011;2075;51.062;6.920;2022-12-11T06:39:32;35.53;;;15.17;;
4122;SDS011;2075;51.062;6.920;2022-12-11T06:42:17;38.27;;;13.77;;
4122;SDS011;2075;51.062;6.920;2022-12-11T06:45:03;35.20;;;13.57;;
4122;SDS011;2075;51.062;6.920;2022-12-11T06:47:48;34.20;;;13.50;;
4122;SDS011;2075;51.062;6.920;2022-12-11T06:50:36;32.20;;;12.00;;
4122;SDS011;2075;51.062;6.920;2022-12-11T06:53:22;28.73;;;12.57;;
4122;SDS011;2075;51.062;6.920;2022-12-11T06:56:12;29.77;;;12.57;;
4122;SDS011;2075;51.062;6.920;2022-12-11T06:58:59;32.97;;;13.10;;
4122;SDS011;2075;51.062;6.920;2022-12-11T07:01:44;33.20;;;13.90;;
4122;SDS011;2075;51.062;6.920;2022-12-11T07:04:30;37.70;;;14.67;;
4122;SDS011;2075;51.062;6.920;2022-12-11T07:07:17;31.97;;;12.50;;
4122;SDS011;2075;51.062;6.920;2022-12-11T07:10:03;30.13;;;13.17;;
4122;SDS011;2075;51.062;6.920;2022-12-11T07:12:52;36.30;;;13.70;;
4122;SDS011;2075;51.062;6.920;2022-12-11T07:15:38;45.93;;;16.07;;
4122;SDS011;2075;51.062;6.920;2022-12-11T07:18:25;33.97;;;13.93;;
4122;SDS011;2075;51.062;6.920;2022-12-11T07:21:10;29.60;;;13.30;;
4122;SDS011;2075;51.062;6.920;2022-12-11T07:23:56;31.50;;;13.20;;
4122;SDS011;2075;51.062;6.920;2022-12-11T07:26:43;32.97;;;13.60;;
4122;SDS011;2075;51.062;6.920;2022-12-11T07:29:32;36.53;;;14.77;;
4122;SDS011;2075;51.062;6.920;2022-12-11T07:32:17;36.17;;;14.90;;
4122;SDS011;2075;51.062;6.920;2022-12-11T07:35:04;35.83;;;14.43;;
4122;SDS011;2075;51.062;6.920;2022-12-11T07:37:50;33.73;;;13.67;;
4122;SDS011;2075;51.062;6.920;2022-12-11T07:40:36;35.20;;;13.53;;
4122;SDS011;2075;51.062;6.920;2022-12-11T07:43:21;33.90;;;14.90;;
4122;SDS011;2075;51.062;6.920;2022-12-11T07:46:09;31.83;;;13.33;;
4122;SDS011;2075;51.062;6.920;2022-12-11T07:48:58;30.20;;;13.40;;
4122;SDS011;2075;51.062;6.920;2022-12-11T07:51:44;35.90;;;16.20;;
4122;SDS011;2075;51.062;6.920;2022-12-11T07:54:35;40.20;;;16.83;;
4122;SDS011;2075;51.062;6.920;2022-12-11T07:57:21;80.70;;;33.37;;
4122;SDS011;2075;51.062;6.920;2022-12-11T08:00:07;66.70;;;30.87;;
4122;SDS011;2075;51.062;6.920;2022-12-11T08:02:58;34.60;;;14.90;;
4122;SDS011;2075;51.062;6.920;2022-12-11T08:05:49;32.60;;;15.00;;
4122;SDS011;2075;51.062;6.920;2022-12-11T08:08:35;31.63;;;13.23;;
4122;SDS011;2075;51.062;6.920;2022-12-11T08:11:20;34.97;;;13.93;;
4122;SDS011;2075;51.062;6.920;2022-12-11T08:14:06;36.37;;;14.37;;
4122;SDS011;2075;51.062;6.920;2022-12-11T08:16:52;36.43;;;16.23;;
4122;SDS011;2075;51.062;6.920;2022-12-11T08:19:42;33.10;;;15.10;;
4122;SDS011;2075;51.062;6.920;2022-12-11T08:22:29;37.63;;;15.80;;
4122;SDS011;2075;51.062;6.920;2022-12-11T08:25:18;35.73;;;15.70;;
4122;SDS011;2075;51.062;6.920;2022-12-11T08:28:04;35.17;;;14.83;;
4122;SDS011;2075;51.062;6.920;2022-12-11T08:30:50;34.67;;;14.73;;
4122;SDS011;2075;51.062;6.920;2022-12-11T08:33:35;38.33;;;15.10;;
4122;SDS011;2075;51.062;6.920;2022-12-11T08:36:23;34.57;;;14.83;;
4122;SDS011;2075;51.062;6.920;2022-12-11T08:39:09;34.37;;;14.77;;
4122;SDS011;2075;51.062;6.920;2022-12-11T08:41:54;38.33;;;14.57;;
4122;SDS011;2075;51.062;6.920;2022-12-11T08:44:40;36.70;;;15.00;;
4122;SDS011;2075;51.062;6.920;2022-12-11T08:47:26;29.67;;;14.30;;
4122;SDS011;2075;51.062;6.920;2022-12-11T08:50:11;33.27;;;14.83;;
4122;SDS011;2075;51.062;6.920;2022-12-11T08:52:59;35.40;;;14.80;;
4122;SDS011;2075;51.062;6.920;2022-12-11T08:55:44;36.37;;;15.00;;
4122;SDS011;2075;51.062;6.920;2022-12-11T08:58:29;31.30;;;13.90;;
4122;SDS011;2075;51.062;6.920;2022-12-11T09:01:15;31.77;;;14.70;;
4122;SDS011;2075;51.062;6.920;2022-12-11T09:04:04;30.70;;;14.27;;
4122;SDS011;2075;51.062;6.920;2022-12-11T09:06:49;34.43;;;16.17;;
4122;SDS011;2075;51.062;6.920;2022-12-11T09:09:36;31.40;;;15.20;;
4122;SDS011;2075;51.062;6.920;2022-12-11T09:12:21;35.50;;;14.97;;
4122;SDS011;2075;51.062;6.920;2022-12-11T09:15:07;34.90;;;14.43;;
4122;SDS011;2075;51.062;6.920;2022-12-11T09:17:53;29.27;;;14.97;;
4122;SDS011;2075;51.062;6.920;2022-12-11T09:20:40;38.80;;;14.80;;
4122;SDS011;2075;51.062;6.920;2022-12-11T09:23:28;30.90;;;13.90;;
4122;SDS011;2075;51.062;6.920;2022-12-11T09:26:16;38.37;;;16.37;;
4122;SDS011;2075;51.062;6.920;2022-12-11T09:29:04;38.20;;;15.23;;
4122;SDS011;2075;51.062;6.920;2022-12-11T09:31:50;34.07;;;16.97;;
4122;SDS011;2075;51.062;6.920;2022-12-11T09:34:36;37.10;;;16.73;;
4122;SDS011;2075;51.062;6.920;2022-12-11T09:37:21;29.30;;;13.07;;
4122;SDS011;2075;51.062;6.920;2022-12-11T09:40:08;29.03;;;14.43;;
4122;SDS011;2075;51.062;6.920;2022-12-11T09:42:57;28.60;;;14.07;;
4122;SDS011;2075;51.062;6.920;2022-12-11T09:45:52;44.43;;;22.27;;
4122;SDS011;2075;51.062;6.920;2022-12-11T09:48:38;37.20;;;14.63;;
4122;SDS011;2075;51.062;6.920;2022-12-11T09:51:26;34.07;;;15.07;;
4122;SDS011;2075;51.062;6.920;2022-12-11T09:54:15;34.00;;;16.67;;
4122;SDS011;2075;51.062;6.920;2022-12-11T09:57:03;33.47;;;15.03;;
4122;SDS011;2075;51.062;6.920;2022-12-11T10:00:04;31.03;;;14.13;;
4122;SDS011;2075;51.062;6.920;2022-12-11T10:03:21;30.70;;;15.67;;
4122;SDS011;2075;51.062;6.920;2022-12-11T10:06:24;35.07;;;14.80;;
4122;SDS011;2075;51.062;6.920;2022-12-11T10:09:16;23.30;;;12.10;;
4122;SDS011;2075;51.062;6.920;2022-12-11T10:12:15;30.43;;;13.47;;
4122;SDS011;2075;51.062;6.920;2022-12-11T10:15:15;32.80;;;14.67;;
4122;SDS011;2075;51.062;6.920;2022-12-11T10:18:21;34.33;;;14.97;;
4122;SDS011;2075;51.062;6.920;2022-12-11T10:21:08;26.17;;;12.50;;
4122;SDS011;2075;51.062;6.920;2022-12-11T10:23:57;32.30;;;13.63;;
4122;SDS011;2075;51.062;6.920;2022-12-11T10:26:44;30.60;;;13.40;;
4122;SDS011;2075;51.062;6.920;2022-12-11T10:29:31;35.07;;;13.37;;
4122;SDS011;2075;51.062;6.920;2022-12-11T10:32:21;31.47;;;13.87;;
4122;SDS011;2075;51.062;6.920;2022-12-11T10:35:08;34.23;;;14.27;;
4122;SDS011;2075;51.062;6.920;2022-12-11T10:38:09;29.90;;;12.50;;
4122;SDS011;2075;51.062;6.920;2022-12-11T10:40:59;32.43;;;13.60;;
4122;SDS011;2075;51.062;6.920;2022-12-11T10:43:47;36.77;;;15.90;;
4122;SDS011;2075;51.062;6.920;2022-12-11T10:46:36;27.27;;;11.97;;
4122;SDS011;2075;51.062;6.920;2022-12-11T10:49:24;33.33;;;13.00;;
4122;SDS011;2075;51.062;6.920;2022-12-11T10:52:11;31.30;;;14.37;;
4122;SDS011;2075;51.062;6.920;2022-12-11T10:55:16;35.57;;;13.80;;
4122;SDS011;2075;51.062;6.920;2022-12-11T10:58:05;37.80;;;14.70;;
4122;SDS011;2075;51.062;6.920;2022-12-11T11:01:01;32.27;;;14.37;;
4122;SDS011;2075;51.062;6.920;2022-12-11T11:03:53;32.80;;;14.63;;
4122;SDS011;2075;51.062;6.920;2022-12-11T11:06:47;33.50;;;14.20;;
4122;SDS011;2075;51.062;6.920;2022-12-11T11:09:44;28.43;;;13.53;;
4122;SDS011;2075;51.062;6.920;2022-12-11T11:12:35;43.37;;;16.30;;
4122;SDS011;2075;51.062;6.920;2022-12-11T11:15:23;32.43;;;15.13;;
4122;SDS011;2075;51.062;6.920;2022-12-11T11:18:11;34.23;;;15.13;;
4122;SDS011;2075;51.062;6.920;2022-12-11T11:21:05;40.17;;;16.50;;
4122;SDS011;2075;51.062;6.920;2022-12-11T11:24:01;35.37;;;14.60;;
4122;SDS011;2075;51.062;6.920;2022-12-11T11:26:48;41.80;;;15.87;;
4122;SDS011;2075;51.062;6.920;2022-12-11T11:29:33;35.60;;;15.40;;
4122;SDS011;2075;51.062;6.920;2022-12-11T11:32:30;41.03;;;19.98;;
4122;SDS011;2075;51.062;6.920;2022-12-11T11:35:18;41.77;;;18.30;;
4122;SDS011;2075;51.062;6.920;2022-12-11T11:38:10;45.67;;;18.80;;
4122;SDS011;2075;51.062;6.920;2022-12-11T11:41:08;40.50;;;17.77;;
4122;SDS011;2075;51.062;6.920;2022-12-11T11:44:01;36.87;;;16.23;;
4122;SDS011;2075;51.062;6.920;2022-12-11T11:46:53;40.53;;;17.30;;
4122;SDS011;2075;51.062;6.920;2022-12-11T11:49:46;41.63;;;16.23;;
4122;SDS011;2075;51.062;6.920;2022-12-11T11:52:37;41.73;;;17.23;;
4122;SDS011;2075;51.062;6.920;2022-12-11T11:55:31;42.57;;;17.03;;
4122;SDS011;2075;51.062;6.920;2022-12-11T11:58:26;39.43;;;16.30;;
4122;SDS011;2075;51.062;6.920;2022-12-11T12:01:21;37.67;;;15.57;;
4122;SDS011;2075;51.062;6.920;2022-12-11T12:04:08;39.33;;;15.83;;
4122;SDS011;2075;51.062;6.920;2022-12-11T12:06:57;47.40;;;18.80;;
4122;SDS011;2075;51.062;6.920;2022-12-11T12:09:53;48.70;;;21.00;;
4122;SDS011;2075;51.062;6.920;2022-12-11T12:12:48;38.87;;;16.30;;
4122;SDS011;2075;51.062;6.920;2022-12-11T12:15:44;39.67;;;16.30;;
4122;SDS011;2075;51.062;6.920;2022-12-11T12:18:41;46.43;;;17.50;;
4122;SDS011;2075;51.062;6.920;2022-12-11T12:21:35;45.43;;;18.40;;
4122;SDS011;2075;51.062;6.920;2022-12-11T12:24:27;43.30;;;17.60;;
4122;SDS011;2075;51.062;6.920;2022-12-11T12:27:22;44.87;;;17.50;;
4122;SDS011;2075;51.062;6.920;2022-12-11T12:30:15;45.80;;;17.00;;
4122;SDS011;2075;51.062;6.920;2022-12-11T12:33:11;38.40;;;15.83;;
4122;SDS011;2075;51.062;6.920;2022-12-11T12:36:09;50.07;;;18.27;;
4122;SDS011;2075;51.062;6.920;2022-12-11T12:39:04;42.50;;;17.70;;
4122;SDS011;2075;51.062;6.920;2022-12-11T12:42:02;48.87;;;19.37;;
4122;SDS011;2075;51.062;6.920;2022-12-11T12:44:53;50.10;;;19.60;;
4122;SDS011;2075;51.062;6.920;2022-12-11T12:47:46;46.23;;;20.47;;
4122;SDS011;2075;51.062;6.920;2022-12-11T12:50:35;51.83;;;20.30;;
4122;SDS011;2075;51.062;6.920;2022-12-11T12:53:23;44.23;;;18.30;;
4122;SDS011;2075;51.062;6.920;2022-12-11T12:56:11;44.80;;;17.33;;
4122;SDS011;2075;51.062;6.920;2022-12-11T12:58:57;47.00;;;17.60;;
4122;SDS011;2075;51.062;6.920;2022-12-11T13:01:44;48.40;;;19.70;;
4122;SDS011;2075;51.062;6.920;2022-12-11T13:04:36;42.60;;;17.83;;
4122;SDS011;2075;51.062;6.920;2022-12-11T13:07:27;45.53;;;18.90;;
4122;SDS011;2075;51.062;6.920;2022-12-11T13:10:22;51.53;;;20.03;;
4122;SDS011;2075;51.062;6.920;2022-12-11T13:13:32;47.47;;;17.73;;
4122;SDS011;2075;51.062;6.920;2022-12-11T13:16:26;67.53;;;20.53;;
4122;SDS011;2075;51.062;6.920;2022-12-11T13:19:25;61.10;;;23.38;;
4122;SDS011;2075;51.062;6.920;2022-12-11T13:22:19;50.00;;;19.90;;
4122;SDS011;2075;51.062;6.920;2022-12-11T13:25:18;56.73;;;20.70;;
4122;SDS011;2075;51.062;6.920;2022-12-11T13:28:18;46.33;;;18.23;;
4122;SDS011;2075;51.062;6.920;2022-12-11T13:31:25;44.43;;;18.00;;
4122;SDS011;2075;51.062;6.920;2022-12-11T13:34:21;48.13;;;19.30;;
4122;SDS011;2075;51.062;6.920;2022-12-11T13:37:15;48.87;;;19.97;;
4122;SDS011;2075;51.062;6.920;2022-12-11T13:40:13;52.17;;;20.10;;
4122;SDS011;2075;51.062;6.920;2022-12-11T13:43:04;51.83;;;20.70;;
4122;SDS011;2075;51.062;6.920;2022-12-11T13:45:54;51.77;;;20.97;;
4122;SDS011;2075;51.062;6.920;2022-12-11T13:48:44;52.57;;;20.27;;
4122;SDS011;2075;51.062;6.920;2022-12-11T13:51:34;52.47;;;19.80;;
4122;SDS011;2075;51.062;6.920;2022-12-11T13:54:20;50.03;;;18.37;;
4122;SDS011;2075;51.062;6.920;2022-12-11T13:57:14;45.40;;;17.77;;
4122;SDS011;2075;51.062;6.920;2022-12-11T14:00:01;56.37;;;19.43;;
4122;SDS011;2075;51.062;6.920;2022-12-11T14:02:51;45.00;;;19.07;;
4122;SDS011;2075;51.062;6.920;2022-12-11T14:05:38;46.17;;;19.10;;
4122;SDS011;2075;51.062;6.920;2022-12-11T14:08:26;42.00;;;17.37;;
4122;SDS011;2075;51.062;6.920;2022-12-11T14:11:19;46.97;;;17.30;;
4122;SDS011;2075;51.062;6.920;2022-12-11T14:14:14;40.33;;;16.10;;
4122;SDS011;2075;51.062;6.920;2022-12-11T14:17:05;46.63;;;18.00;;
4122;SDS011;2075;51.062;6.920;2022-12-11T14:19:55;38.37;;;16.87;;
4122;SDS011;2075;51.062;6.920;2022-12-11T14:22:44;44.67;;;16.53;;
4122;SDS011;2075;51.062;6.920;2022-12-11T14:25:30;47.10;;;18.70;;
4122;SDS011;2075;51.062;6.920;2022-12-11T14:28:15;46.13;;;17.83;;
4122;SDS011;2075;51.062;6.920;2022-12-11T14:31:03;46.97;;;18.67;;
4122;SDS011;2075;51.062;6.920;2022-12-11T14:33:51;42.33;;;17.13;;
4122;SDS011;2075;51.062;6.920;2022-12-11T14:36:40;45.17;;;17.77;;
4122;SDS011;2075;51.062;6.920;2022-12-11T14:39:28;50.60;;;18.70;;
4122;SDS011;2075;51.062;6.920;2022-12-11T14:42:17;43.33;;;19.07;;
4122;SDS011;2075;51.062;6.920;2022-12-11T14:45:06;55.73;;;19.27;;
4122;SDS011;2075;51.062;6.920;2022-12-11T14:48:02;40.33;;;17.80;;
4122;SDS011;2075;51.062;6.920;2022-12-11T14:50:52;41.10;;;15.93;;
4122;SDS011;2075;51.062;6.920;2022-12-11T14:53:42;35.20;;;15.17;;
4122;SDS011;2075;51.062;6.920;2022-12-11T14:56:30;36.80;;;15.63;;
4122;SDS011;2075;51.062;6.920;2022-12-11T14:59:17;37.23;;;15.37;;
4122;SDS011;2075;51.062;6.920;2022-12-11T15:02:19;37.27;;;14.53;;
4122;SDS011;2075;51.062;6.920;2022-12-11T15:05:13;34.70;;;13.53;;
4122;SDS011;2075;51.062;6.920;2022-12-11T15:08:01;29.07;;;13.40;;
4122;SDS011;2075;51.062;6.920;2022-12-11T15:11:07;33.73;;;13.37;;
4122;SDS011;2075;51.062;6.920;2022-12-11T15:13:55;31.40;;;14.47;;
4122;SDS011;2075;51.062;6.920;2022-12-11T15:16:43;33.87;;;13.77;;
4122;SDS011;2075;51.062;6.920;2022-12-11T15:19:31;34.10;;;14.90;;
4122;SDS011;2075;51.062;6.920;2022-12-11T15:22:22;32.17;;;13.83;;
4122;SDS011;2075;51.062;6.920;2022-12-11T15:25:16;41.83;;;15.97;;
4122;SDS011;2075;51.062;6.920;2022-12-11T15:28:03;42.30;;;16.40;;
4122;SDS011;2075;51.062;6.920;2022-12-11T15:30:54;35.43;;;14.87;;
4122;SDS011;2075;51.062;6.920;2022-12-11T15:33:44;34.93;;;14.57;;
4122;SDS011;2075;51.062;6.920;2022-12-11T15:36:31;38.50;;;15.80;;
4122;SDS011;2075;51.062;6.920;2022-12-11T15:39:21;32.97;;;14.83;;
4122;SDS011;2075;51.062;6.920;2022-12-11T15:42:08;40.10;;;17.27;;
4122;SDS011;2075;51.062;6.920;2022-12-11T15:44:57;34.37;;;15.87;;
4122;SDS011;2075;51.062;6.920;2022-12-11T15:47:46;42.40;;;17.13;;
4122;SDS011;2075;51.062;6.920;2022-12-11T15:50:32;36.53;;;15.03;;
4122;SDS011;2075;51.062;6.920;2022-12-11T15:53:17;43.60;;;16.77;;
4122;SDS011;2075;51.062;6.920;2022-12-11T15:56:05;40.63;;;16.77;;
4122;SDS011;2075;51.062;6.920;2022-12-11T15:58:55;39.70;;;16.13;;
4122;SDS011;2075;51.062;6.920;2022-12-11T16:01:49;37.30;;;16.57;;
4122;SDS011;2075;51.062;6.920;2022-12-11T16:04:34;37.83;;;14.97;;
4122;SDS011;2075;51.062;6.920;2022-12-11T16:07:21;34.30;;;15.27;;
4122;SDS011;2075;51.062;6.920;2022-12-11T16:10:09;41.97;;;15.80;;
4122;SDS011;2075;51.062;6.920;2022-12-11T16:13:00;39.93;;;15.13;;
4122;SDS011;2075;51.062;6.920;2022-12-11T16:15:46;36.77;;;15.83;;
4122;SDS011;2075;51.062;6.920;2022-12-11T16:18:32;40.30;;;17.03;;
4122;SDS011;2075;51.062;6.920;2022-12-11T16:21:17;38.87;;;16.03;;
4122;SDS011;2075;51.062;6.920;2022-12-11T16:24:05;40.67;;;16.53;;
4122;SDS011;2075;51.062;6.920;2022-12-11T16:26:50;44.00;;;17.17;;
4122;SDS011;2075;51.062;6.920;2022-12-11T16:29:38;46.43;;;18.10;;
4122;SDS011;2075;51.062;6.920;2022-12-11T16:32:25;42.47;;;17.50;;
4122;SDS011;2075;51.062;6.920;2022-12-11T16:35:10;45.67;;;15.53;;
4122;SDS011;2075;51.062;6.920;2022-12-11T16:37:56;40.07;;;16.93;;
4122;SDS011;2075;51.062;6.920;2022-12-11T16:40:42;45.50;;;16.70;;
4122;SDS011;2075;51.062;6.920;2022-12-11T16:43:28;33.90;;;15.20;;
4122;SDS011;2075;51.062;6.920;2022-12-11T16:46:17;37.23;;;15.77;;
4122;SDS011;2075;51.062;6.920;2022-12-11T16:49:03;49.67;;;17.90;;
4122;SDS011;2075;51.062;6.920;2022-12-11T16:51:48;41.43;;;17.37;;
4122;SDS011;2075;51.062;6.920;2022-12-11T16:54:37;35.07;;;15.90;;
4122;SDS011;2075;51.062;6.920;2022-12-11T16:57:24;44.07;;;16.80;;
4122;SDS011;2075;51.062;6.920;2022-12-11T17:00:15;38.90;;;16.30;;